Heat Index SAI AWOS Graphical Display Untitled Document
Bertrand Chaffee Hospital Heliport (2NK6) Springville, New York, USA
250
21:10
02/09/2014
00
N/A
N/A
29.87
2500
1420
66(F), 19(C)
65(F), 18(C)
66 F
97%
FEW004 SCT018 BKN048
10
N/A
0"
N/A
21:10 zulu Wind Calm, Altimeter 29.87
METAR K2NK6 022110Z AUTO 00000KT 10SM FEW004 SCT018 BKN048 19/18 A2987 A02 P0000
METAR:
FAA Disclaimer--Advisory Use ONLY, not for flight info--
INFO:
Wind Direction:
Wind Speed:
Wind Gust:
Wind Variable:
Altimeter:
Dens Alt:
Elev:
Temp:
Dwpt:
Wind Chill
Rel Humidity:
Ceiling:
Visibility:
Prsnt Wea:
PCPN:
Remarks:
How to read the WebPage